sensor_id;sensor_type;location;lat;lon;timestamp;P1;durP1;ratioP1;P2;durP2;ratioP2
11473;SDS011;5793;52.238;13.438;2023-05-07T00:00:44;18.93;;;16.50;;
11473;SDS011;5793;52.238;13.438;2023-05-07T00:03:13;16.97;;;14.77;;
11473;SDS011;5793;52.238;13.438;2023-05-07T00:05:41;20.23;;;17.00;;
11473;SDS011;5793;52.238;13.438;2023-05-07T00:08:08;18.67;;;14.50;;
11473;SDS011;5793;52.238;13.438;2023-05-07T00:10:36;16.43;;;12.97;;
11473;SDS011;5793;52.238;13.438;2023-05-07T00:13:04;14.93;;;12.77;;
11473;SDS011;5793;52.238;13.438;2023-05-07T00:15:32;17.13;;;13.40;;
11473;SDS011;5793;52.238;13.438;2023-05-07T00:18:00;15.13;;;12.77;;
11473;SDS011;5793;52.238;13.438;2023-05-07T00:20:29;15.97;;;13.00;;
11473;SDS011;5793;52.238;13.438;2023-05-07T00:22:59;18.97;;;14.20;;
11473;SDS011;5793;52.238;13.438;2023-05-07T00:25:26;18.17;;;13.60;;
11473;SDS011;5793;52.238;13.438;2023-05-07T00:27:54;20.33;;;14.27;;
11473;SDS011;5793;52.238;13.438;2023-05-07T00:30:23;15.80;;;13.43;;
11473;SDS011;5793;52.238;13.438;2023-05-07T00:32:51;16.87;;;13.77;;
11473;SDS011;5793;52.238;13.438;2023-05-07T00:35:19;15.70;;;13.77;;
11473;SDS011;5793;52.238;13.438;2023-05-07T00:37:48;15.27;;;12.87;;
11473;SDS011;5793;52.238;13.438;2023-05-07T00:40:16;15.83;;;13.10;;
11473;SDS011;5793;52.238;13.438;2023-05-07T00:42:43;15.70;;;13.03;;
11473;SDS011;5793;52.238;13.438;2023-05-07T00:45:13;14.47;;;12.50;;
11473;SDS011;5793;52.238;13.438;2023-05-07T00:47:41;16.63;;;13.17;;
11473;SDS011;5793;52.238;13.438;2023-05-07T00:50:09;17.87;;;12.97;;
11473;SDS011;5793;52.238;13.438;2023-05-07T00:52:39;14.30;;;12.67;;
11473;SDS011;5793;52.238;13.438;2023-05-07T00:55:09;13.93;;;12.43;;
11473;SDS011;5793;52.238;13.438;2023-05-07T00:57:37;14.83;;;11.90;;
11473;SDS011;5793;52.238;13.438;2023-05-07T01:00:07;14.83;;;12.20;;
11473;SDS011;5793;52.238;13.438;2023-05-07T01:02:36;13.43;;;11.93;;
11473;SDS011;5793;52.238;13.438;2023-05-07T01:05:05;15.13;;;12.20;;
11473;SDS011;5793;52.238;13.438;2023-05-07T01:07:35;14.20;;;12.70;;
11473;SDS011;5793;52.238;13.438;2023-05-07T01:10:06;12.70;;;11.40;;
11473;SDS011;5793;52.238;13.438;2023-05-07T01:12:36;13.73;;;11.47;;
11473;SDS011;5793;52.238;13.438;2023-05-07T01:15:07;14.83;;;11.37;;
11473;SDS011;5793;52.238;13.438;2023-05-07T01:17:36;13.53;;;11.90;;
11473;SDS011;5793;52.238;13.438;2023-05-07T01:20:06;13.43;;;11.63;;
11473;SDS011;5793;52.238;13.438;2023-05-07T01:22:37;15.87;;;11.40;;
11473;SDS011;5793;52.238;13.438;2023-05-07T01:25:06;12.10;;;10.83;;
11473;SDS011;5793;52.238;13.438;2023-05-07T01:27:35;14.30;;;11.37;;
11473;SDS011;5793;52.238;13.438;2023-05-07T01:30:03;12.67;;;10.30;;
11473;SDS011;5793;52.238;13.438;2023-05-07T01:32:32;12.17;;;10.57;;
11473;SDS011;5793;52.238;13.438;2023-05-07T01:35:05;13.73;;;11.33;;
11473;SDS011;5793;52.238;13.438;2023-05-07T01:37:36;13.43;;;11.63;;
11473;SDS011;5793;52.238;13.438;2023-05-07T01:40:05;15.07;;;10.77;;
11473;SDS011;5793;52.238;13.438;2023-05-07T01:42:34;12.60;;;10.40;;
11473;SDS011;5793;52.238;13.438;2023-05-07T01:45:03;15.33;;;10.80;;
11473;SDS011;5793;52.238;13.438;2023-05-07T01:47:31;19.57;;;13.00;;
11473;SDS011;5793;52.238;13.438;2023-05-07T01:50:00;13.93;;;11.87;;
11473;SDS011;5793;52.238;13.438;2023-05-07T01:52:28;16.70;;;12.63;;
11473;SDS011;5793;52.238;13.438;2023-05-07T01:54:57;15.97;;;13.07;;
11473;SDS011;5793;52.238;13.438;2023-05-07T01:57:25;17.97;;;13.83;;
11473;SDS011;5793;52.238;13.438;2023-05-07T01:59:53;16.60;;;14.30;;
11473;SDS011;5793;52.238;13.438;2023-05-07T02:02:21;16.07;;;13.67;;
11473;SDS011;5793;52.238;13.438;2023-05-07T02:04:49;14.20;;;12.37;;
11473;SDS011;5793;52.238;13.438;2023-05-07T02:07:17;13.83;;;11.97;;
11473;SDS011;5793;52.238;13.438;2023-05-07T02:09:44;14.60;;;12.20;;
11473;SDS011;5793;52.238;13.438;2023-05-07T02:12:14;15.23;;;12.47;;
11473;SDS011;5793;52.238;13.438;2023-05-07T02:14:41;12.67;;;11.33;;
11473;SDS011;5793;52.238;13.438;2023-05-07T02:17:10;13.23;;;11.13;;
11473;SDS011;5793;52.238;13.438;2023-05-07T02:19:37;15.30;;;11.33;;
11473;SDS011;5793;52.238;13.438;2023-05-07T02:22:06;14.37;;;12.17;;
11473;SDS011;5793;52.238;13.438;2023-05-07T02:24:34;13.03;;;11.30;;
11473;SDS011;5793;52.238;13.438;2023-05-07T02:27:02;12.47;;;11.07;;
11473;SDS011;5793;52.238;13.438;2023-05-07T02:29:31;11.93;;;10.73;;
11473;SDS011;5793;52.238;13.438;2023-05-07T02:31:59;11.67;;;10.47;;
11473;SDS011;5793;52.238;13.438;2023-05-07T02:34:27;12.73;;;11.00;;
11473;SDS011;5793;52.238;13.438;2023-05-07T02:36:54;15.40;;;12.27;;
11473;SDS011;5793;52.238;13.438;2023-05-07T02:39:22;13.90;;;11.83;;
11473;SDS011;5793;52.238;13.438;2023-05-07T02:41:50;13.47;;;11.90;;
11473;SDS011;5793;52.238;13.438;2023-05-07T02:44:18;14.10;;;11.60;;
11473;SDS011;5793;52.238;13.438;2023-05-07T02:46:47;13.93;;;11.30;;
11473;SDS011;5793;52.238;13.438;2023-05-07T02:49:15;15.43;;;11.33;;
11473;SDS011;5793;52.238;13.438;2023-05-07T02:51:43;14.23;;;12.00;;
11473;SDS011;5793;52.238;13.438;2023-05-07T02:54:10;13.13;;;11.17;;
11473;SDS011;5793;52.238;13.438;2023-05-07T02:56:38;14.80;;;10.90;;
11473;SDS011;5793;52.238;13.438;2023-05-07T02:59:06;11.77;;;10.57;;
11473;SDS011;5793;52.238;13.438;2023-05-07T03:01:34;14.40;;;10.83;;
11473;SDS011;5793;52.238;13.438;2023-05-07T03:04:03;14.57;;;10.90;;
11473;SDS011;5793;52.238;13.438;2023-05-07T03:06:31;11.20;;;10.00;;
11473;SDS011;5793;52.238;13.438;2023-05-07T03:08:59;13.30;;;10.40;;
11473;SDS011;5793;52.238;13.438;2023-05-07T03:11:27;14.27;;;10.90;;
11473;SDS011;5793;52.238;13.438;2023-05-07T03:13:55;12.07;;;10.77;;
11473;SDS011;5793;52.238;13.438;2023-05-07T03:16:22;12.93;;;11.47;;
11473;SDS011;5793;52.238;13.438;2023-05-07T03:18:50;13.10;;;10.80;;
11473;SDS011;5793;52.238;13.438;2023-05-07T03:21:19;13.27;;;10.53;;
11473;SDS011;5793;52.238;13.438;2023-05-07T03:23:47;14.17;;;10.77;;
11473;SDS011;5793;52.238;13.438;2023-05-07T03:26:15;14.53;;;10.63;;
11473;SDS011;5793;52.238;13.438;2023-05-07T03:28:43;14.53;;;12.20;;
11473;SDS011;5793;52.238;13.438;2023-05-07T03:31:10;11.73;;;10.40;;
11473;SDS011;5793;52.238;13.438;2023-05-07T03:33:39;14.93;;;11.30;;
11473;SDS011;5793;52.238;13.438;2023-05-07T03:36:17;13.57;;;11.33;;
11473;SDS011;5793;52.238;13.438;2023-05-07T03:38:47;14.20;;;11.23;;
11473;SDS011;5793;52.238;13.438;2023-05-07T03:41:16;12.57;;;10.83;;
11473;SDS011;5793;52.238;13.438;2023-05-07T03:43:44;17.80;;;11.63;;
11473;SDS011;5793;52.238;13.438;2023-05-07T03:46:12;13.33;;;11.93;;
11473;SDS011;5793;52.238;13.438;2023-05-07T03:48:40;13.53;;;11.33;;
11473;SDS011;5793;52.238;13.438;2023-05-07T03:51:07;13.97;;;12.03;;
11473;SDS011;5793;52.238;13.438;2023-05-07T03:53:36;14.77;;;11.57;;
11473;SDS011;5793;52.238;13.438;2023-05-07T03:56:04;13.03;;;11.23;;
11473;SDS011;5793;52.238;13.438;2023-05-07T03:58:32;14.10;;;11.20;;
11473;SDS011;5793;52.238;13.438;2023-05-07T04:01:00;14.63;;;11.57;;
11473;SDS011;5793;52.238;13.438;2023-05-07T04:03:28;14.07;;;11.00;;
11473;SDS011;5793;52.238;13.438;2023-05-07T04:05:56;12.63;;;11.23;;
11473;SDS011;5793;52.238;13.438;2023-05-07T04:08:24;12.90;;;10.70;;
11473;SDS011;5793;52.238;13.438;2023-05-07T04:10:55;12.80;;;10.23;;
11473;SDS011;5793;52.238;13.438;2023-05-07T04:13:23;12.97;;;10.73;;
11473;SDS011;5793;52.238;13.438;2023-05-07T04:15:52;15.93;;;11.00;;
11473;SDS011;5793;52.238;13.438;2023-05-07T04:18:20;12.83;;;11.13;;
11473;SDS011;5793;52.238;13.438;2023-05-07T04:20:48;12.37;;;10.93;;
11473;SDS011;5793;52.238;13.438;2023-05-07T04:23:16;13.03;;;11.73;;
11473;SDS011;5793;52.238;13.438;2023-05-07T04:25:44;14.27;;;12.10;;
11473;SDS011;5793;52.238;13.438;2023-05-07T04:28:13;18.63;;;14.10;;
11473;SDS011;5793;52.238;13.438;2023-05-07T04:30:41;15.63;;;12.43;;
11473;SDS011;5793;52.238;13.438;2023-05-07T04:33:09;15.30;;;12.13;;
11473;SDS011;5793;52.238;13.438;2023-05-07T04:35:37;17.50;;;13.20;;
11473;SDS011;5793;52.238;13.438;2023-05-07T04:38:05;16.40;;;12.23;;
11473;SDS011;5793;52.238;13.438;2023-05-07T04:40:35;15.03;;;12.17;;
11473;SDS011;5793;52.238;13.438;2023-05-07T04:43:03;16.37;;;12.30;;
11473;SDS011;5793;52.238;13.438;2023-05-07T04:45:32;13.57;;;12.10;;
11473;SDS011;5793;52.238;13.438;2023-05-07T04:48:00;14.87;;;12.30;;
11473;SDS011;5793;52.238;13.438;2023-05-07T04:50:28;13.93;;;12.47;;
11473;SDS011;5793;52.238;13.438;2023-05-07T04:52:56;15.03;;;12.87;;
11473;SDS011;5793;52.238;13.438;2023-05-07T04:55:24;16.70;;;12.80;;
11473;SDS011;5793;52.238;13.438;2023-05-07T04:57:52;14.77;;;12.33;;
11473;SDS011;5793;52.238;13.438;2023-05-07T05:00:20;15.90;;;12.47;;
11473;SDS011;5793;52.238;13.438;2023-05-07T05:02:50;14.10;;;12.27;;
11473;SDS011;5793;52.238;13.438;2023-05-07T05:05:18;13.33;;;11.90;;
11473;SDS011;5793;52.238;13.438;2023-05-07T05:07:46;14.23;;;11.30;;
11473;SDS011;5793;52.238;13.438;2023-05-07T05:10:14;13.97;;;12.30;;
11473;SDS011;5793;52.238;13.438;2023-05-07T05:12:42;13.00;;;11.57;;
11473;SDS011;5793;52.238;13.438;2023-05-07T05:15:10;18.93;;;11.53;;
11473;SDS011;5793;52.238;13.438;2023-05-07T05:17:39;15.27;;;12.60;;
11473;SDS011;5793;52.238;13.438;2023-05-07T05:20:08;14.63;;;11.60;;
11473;SDS011;5793;52.238;13.438;2023-05-07T05:22:38;15.80;;;11.80;;
11473;SDS011;5793;52.238;13.438;2023-05-07T05:25:06;12.90;;;11.40;;
11473;SDS011;5793;52.238;13.438;2023-05-07T05:27:34;13.67;;;11.47;;
11473;SDS011;5793;52.238;13.438;2023-05-07T05:30:03;15.93;;;11.40;;
11473;SDS011;5793;52.238;13.438;2023-05-07T05:32:31;13.23;;;11.40;;
11473;SDS011;5793;52.238;13.438;2023-05-07T05:35:00;12.57;;;11.10;;
11473;SDS011;5793;52.238;13.438;2023-05-07T05:37:29;12.73;;;11.43;;
11473;SDS011;5793;52.238;13.438;2023-05-07T05:39:57;16.90;;;10.90;;
11473;SDS011;5793;52.238;13.438;2023-05-07T05:42:25;12.80;;;10.63;;
11473;SDS011;5793;52.238;13.438;2023-05-07T05:44:53;14.27;;;11.97;;
11473;SDS011;5793;52.238;13.438;2023-05-07T05:47:21;13.17;;;11.10;;
11473;SDS011;5793;52.238;13.438;2023-05-07T05:49:49;14.13;;;11.10;;
11473;SDS011;5793;52.238;13.438;2023-05-07T05:52:17;14.83;;;12.43;;
11473;SDS011;5793;52.238;13.438;2023-05-07T05:54:46;15.60;;;12.70;;
11473;SDS011;5793;52.238;13.438;2023-05-07T05:57:14;14.17;;;11.60;;
11473;SDS011;5793;52.238;13.438;2023-05-07T05:59:42;12.47;;;10.43;;
11473;SDS011;5793;52.238;13.438;2023-05-07T06:02:09;13.07;;;11.00;;
11473;SDS011;5793;52.238;13.438;2023-05-07T06:04:37;13.43;;;10.47;;
11473;SDS011;5793;52.238;13.438;2023-05-07T06:07:05;14.00;;;12.13;;
11473;SDS011;5793;52.238;13.438;2023-05-07T06:09:33;12.53;;;11.23;;
11473;SDS011;5793;52.238;13.438;2023-05-07T06:12:02;13.67;;;11.53;;
11473;SDS011;5793;52.238;13.438;2023-05-07T06:14:30;12.90;;;10.80;;
11473;SDS011;5793;52.238;13.438;2023-05-07T06:16:58;12.97;;;11.47;;
11473;SDS011;5793;52.238;13.438;2023-05-07T06:19:26;12.77;;;10.73;;
11473;SDS011;5793;52.238;13.438;2023-05-07T06:21:54;12.03;;;10.70;;
11473;SDS011;5793;52.238;13.438;2023-05-07T06:24:23;11.90;;;9.87;;
11473;SDS011;5793;52.238;13.438;2023-05-07T06:26:51;12.33;;;10.63;;
11473;SDS011;5793;52.238;13.438;2023-05-07T06:29:20;13.17;;;10.40;;
11473;SDS011;5793;52.238;13.438;2023-05-07T06:31:48;10.83;;;9.00;;
11473;SDS011;5793;52.238;13.438;2023-05-07T06:34:16;12.10;;;9.27;;
11473;SDS011;5793;52.238;13.438;2023-05-07T06:36:43;9.30;;;8.40;;
11473;SDS011;5793;52.238;13.438;2023-05-07T06:39:11;9.80;;;8.10;;
11473;SDS011;5793;52.238;13.438;2023-05-07T06:41:39;9.53;;;8.13;;
11473;SDS011;5793;52.238;13.438;2023-05-07T06:44:06;9.60;;;8.70;;
11473;SDS011;5793;52.238;13.438;2023-05-07T06:46:36;9.20;;;8.03;;
11473;SDS011;5793;52.238;13.438;2023-05-07T06:49:04;9.10;;;8.03;;
11473;SDS011;5793;52.238;13.438;2023-05-07T06:51:32;10.90;;;7.90;;
11473;SDS011;5793;52.238;13.438;2023-05-07T06:54:00;11.43;;;7.53;;
11473;SDS011;5793;52.238;13.438;2023-05-07T06:56:30;8.97;;;8.00;;
11473;SDS011;5793;52.238;13.438;2023-05-07T06:58:59;8.30;;;6.87;;
11473;SDS011;5793;52.238;13.438;2023-05-07T07:01:27;8.97;;;7.63;;
11473;SDS011;5793;52.238;13.438;2023-05-07T07:03:56;7.90;;;7.10;;
11473;SDS011;5793;52.238;13.438;2023-05-07T07:06:24;9.93;;;6.47;;
11473;SDS011;5793;52.238;13.438;2023-05-07T07:08:53;7.97;;;6.47;;
11473;SDS011;5793;52.238;13.438;2023-05-07T07:11:20;7.80;;;6.30;;
11473;SDS011;5793;52.238;13.438;2023-05-07T07:13:48;6.93;;;5.77;;
11473;SDS011;5793;52.238;13.438;2023-05-07T07:16:16;8.73;;;5.80;;
11473;SDS011;5793;52.238;13.438;2023-05-07T07:18:44;5.90;;;5.27;;
11473;SDS011;5793;52.238;13.438;2023-05-07T07:21:13;6.43;;;5.40;;
11473;SDS011;5793;52.238;13.438;2023-05-07T07:23:41;6.57;;;5.93;;
11473;SDS011;5793;52.238;13.438;2023-05-07T07:26:09;7.60;;;5.87;;
11473;SDS011;5793;52.238;13.438;2023-05-07T07:28:41;7.13;;;5.77;;
11473;SDS011;5793;52.238;13.438;2023-05-07T07:31:10;6.17;;;5.47;;
11473;SDS011;5793;52.238;13.438;2023-05-07T07:33:39;7.10;;;5.00;;
11473;SDS011;5793;52.238;13.438;2023-05-07T07:36:06;7.87;;;6.23;;
11473;SDS011;5793;52.238;13.438;2023-05-07T07:38:36;6.97;;;5.13;;
11473;SDS011;5793;52.238;13.438;2023-05-07T07:41:04;6.73;;;5.40;;
11473;SDS011;5793;52.238;13.438;2023-05-07T07:43:32;8.60;;;6.07;;
11473;SDS011;5793;52.238;13.438;2023-05-07T07:45:59;7.47;;;5.17;;
11473;SDS011;5793;52.238;13.438;2023-05-07T07:48:27;7.50;;;5.57;;
11473;SDS011;5793;52.238;13.438;2023-05-07T07:50:55;6.00;;;5.40;;
11473;SDS011;5793;52.238;13.438;2023-05-07T07:53:23;7.13;;;5.70;;
11473;SDS011;5793;52.238;13.438;2023-05-07T07:55:52;6.53;;;4.80;;
11473;SDS011;5793;52.238;13.438;2023-05-07T07:58:24;7.03;;;5.07;;
11473;SDS011;5793;52.238;13.438;2023-05-07T08:00:52;6.82;;;4.93;;
11473;SDS011;5793;52.238;13.438;2023-05-07T08:03:22;7.03;;;5.37;;
11473;SDS011;5793;52.238;13.438;2023-05-07T08:05:50;5.67;;;5.13;;
11473;SDS011;5793;52.238;13.438;2023-05-07T08:08:17;5.97;;;5.27;;
11473;SDS011;5793;52.238;13.438;2023-05-07T08:10:45;5.70;;;5.00;;
11473;SDS011;5793;52.238;13.438;2023-05-07T08:13:17;5.83;;;4.87;;
11473;SDS011;5793;52.238;13.438;2023-05-07T08:15:45;6.50;;;4.63;;
11473;SDS011;5793;52.238;13.438;2023-05-07T08:18:13;6.50;;;4.40;;
11473;SDS011;5793;52.238;13.438;2023-05-07T08:20:41;5.87;;;4.60;;
11473;SDS011;5793;52.238;13.438;2023-05-07T08:23:09;4.18;;;3.78;;
11473;SDS011;5793;52.238;13.438;2023-05-07T08:25:36;7.72;;;4.30;;
11473;SDS011;5793;52.238;13.438;2023-05-07T08:28:04;4.82;;;4.35;;
11473;SDS011;5793;52.238;13.438;2023-05-07T08:30:36;5.40;;;4.30;;
11473;SDS011;5793;52.238;13.438;2023-05-07T08:33:04;5.97;;;4.07;;
11473;SDS011;5793;52.238;13.438;2023-05-07T08:35:32;5.20;;;4.00;;
11473;SDS011;5793;52.238;13.438;2023-05-07T08:37:59;4.07;;;3.67;;
11473;SDS011;5793;52.238;13.438;2023-05-07T08:40:27;3.28;;;2.97;;
11473;SDS011;5793;52.238;13.438;2023-05-07T08:42:56;5.47;;;3.22;;
11473;SDS011;5793;52.238;13.438;2023-05-07T08:45:25;4.20;;;3.30;;
11473;SDS011;5793;52.238;13.438;2023-05-07T08:47:58;6.03;;;2.97;;
11473;SDS011;5793;52.238;13.438;2023-05-07T08:50:27;5.47;;;3.30;;
11473;SDS011;5793;52.238;13.438;2023-05-07T08:52:55;7.20;;;3.40;;
11473;SDS011;5793;52.238;13.438;2023-05-07T08:55:23;4.35;;;3.20;;
11473;SDS011;5793;52.238;13.438;2023-05-07T08:57:51;3.78;;;3.17;;
11473;SDS011;5793;52.238;13.438;2023-05-07T09:00:19;3.33;;;3.00;;
11473;SDS011;5793;52.238;13.438;2023-05-07T09:02:47;3.28;;;2.97;;
11473;SDS011;5793;52.238;13.438;2023-05-07T09:05:17;3.83;;;2.90;;
11473;SDS011;5793;52.238;13.438;2023-05-07T09:07:44;3.90;;;3.17;;
11473;SDS011;5793;52.238;13.438;2023-05-07T09:10:13;3.80;;;2.88;;
11473;SDS011;5793;52.238;13.438;2023-05-07T09:12:41;3.50;;;3.20;;
11473;SDS011;5793;52.238;13.438;2023-05-07T09:15:09;3.78;;;2.70;;
11473;SDS011;5793;52.238;13.438;2023-05-07T09:17:38;3.22;;;2.50;;
11473;SDS011;5793;52.238;13.438;2023-05-07T09:20:07;4.38;;;2.70;;
11473;SDS011;5793;52.238;13.438;2023-05-07T09:22:38;3.30;;;2.70;;
11473;SDS011;5793;52.238;13.438;2023-05-07T09:25:06;4.97;;;3.63;;
11473;SDS011;5793;52.238;13.438;2023-05-07T09:27:36;7.65;;;3.13;;
11473;SDS011;5793;52.238;13.438;2023-05-07T09:30:04;3.78;;;2.85;;
11473;SDS011;5793;52.238;13.438;2023-05-07T09:32:34;3.20;;;2.90;;
11473;SDS011;5793;52.238;13.438;2023-05-07T09:35:03;6.82;;;3.35;;
11473;SDS011;5793;52.238;13.438;2023-05-07T09:37:31;5.45;;;3.78;;
11473;SDS011;5793;52.238;13.438;2023-05-07T09:40:00;3.92;;;3.50;;
11473;SDS011;5793;52.238;13.438;2023-05-07T09:42:29;4.28;;;3.30;;
11473;SDS011;5793;52.238;13.438;2023-05-07T09:44:58;5.35;;;3.60;;
11473;SDS011;5793;52.238;13.438;2023-05-07T09:47:26;4.15;;;3.40;;
11473;SDS011;5793;52.238;13.438;2023-05-07T09:49:59;4.57;;;3.80;;
11473;SDS011;5793;52.238;13.438;2023-05-07T09:52:29;6.00;;;4.30;;
11473;SDS011;5793;52.238;13.438;2023-05-07T09:55:01;6.38;;;4.85;;
11473;SDS011;5793;52.238;13.438;2023-05-07T09:57:29;5.07;;;4.57;;
11473;SDS011;5793;52.238;13.438;2023-05-07T09:59:59;4.97;;;4.30;;
11473;SDS011;5793;52.238;13.438;2023-05-07T10:02:30;5.50;;;4.35;;
11473;SDS011;5793;52.238;13.438;2023-05-07T10:04:58;4.55;;;4.13;;
11473;SDS011;5793;52.238;13.438;2023-05-07T10:07:27;4.70;;;4.18;;
11473;SDS011;5793;52.238;13.438;2023-05-07T10:09:56;4.40;;;4.00;;
11473;SDS011;5793;52.238;13.438;2023-05-07T10:12:27;4.93;;;4.18;;
11473;SDS011;5793;52.238;13.438;2023-05-07T10:14:56;4.07;;;3.72;;
11473;SDS011;5793;52.238;13.438;2023-05-07T10:17:24;3.65;;;3.20;;
11473;SDS011;5793;52.238;13.438;2023-05-07T10:19:52;3.90;;;3.47;;
11473;SDS011;5793;52.238;13.438;2023-05-07T10:22:21;3.42;;;3.13;;
11473;SDS011;5793;52.238;13.438;2023-05-07T10:24:50;3.83;;;3.42;;
11473;SDS011;5793;52.238;13.438;2023-05-07T10:27:21;4.07;;;3.15;;
11473;SDS011;5793;52.238;13.438;2023-05-07T10:29:53;4.25;;;3.38;;
11473;SDS011;5793;52.238;13.438;2023-05-07T10:32:30;3.85;;;3.45;;
11473;SDS011;5793;52.238;13.438;2023-05-07T10:35:05;3.20;;;2.90;;
11473;SDS011;5793;52.238;13.438;2023-05-07T10:37:37;3.80;;;3.10;;
11473;SDS011;5793;52.238;13.438;2023-05-07T10:40:06;3.20;;;2.72;;
11473;SDS011;5793;52.238;13.438;2023-05-07T10:42:36;3.05;;;2.40;;
11473;SDS011;5793;52.238;13.438;2023-05-07T10:45:14;2.88;;;2.20;;
11473;SDS011;5793;52.238;13.438;2023-05-07T10:51:17;2.38;;;1.80;;
11473;SDS011;5793;52.238;13.438;2023-05-07T10:53:46;3.45;;;2.22;;
11473;SDS011;5793;52.238;13.438;2023-05-07T10:56:24;2.03;;;1.77;;
11473;SDS011;5793;52.238;13.438;2023-05-07T10:58:54;2.42;;;2.10;;
11473;SDS011;5793;52.238;13.438;2023-05-07T11:04:20;3.03;;;1.98;;
11473;SDS011;5793;52.238;13.438;2023-05-07T11:10:00;2.40;;;2.00;;
11473;SDS011;5793;52.238;13.438;2023-05-07T11:15:38;2.65;;;1.88;;
11473;SDS011;5793;52.238;13.438;2023-05-07T11:18:11;2.30;;;1.67;;
11473;SDS011;5793;52.238;13.438;2023-05-07T11:20:50;2.85;;;1.73;;
11473;SDS011;5793;52.238;13.438;2023-05-07T11:26:43;4.13;;;1.83;;
11473;SDS011;5793;52.238;13.438;2023-05-07T11:29:13;1.88;;;1.52;;
11473;SDS011;5793;52.238;13.438;2023-05-07T11:31:50;4.35;;;1.88;;
11473;SDS011;5793;52.238;13.438;2023-05-07T11:34:23;3.17;;;1.80;;
11473;SDS011;5793;52.238;13.438;2023-05-07T11:36:52;3.90;;;1.73;;
11473;SDS011;5793;52.238;13.438;2023-05-07T11:39:25;2.20;;;2.00;;
11473;SDS011;5793;52.238;13.438;2023-05-07T11:41:54;2.78;;;2.10;;
11473;SDS011;5793;52.238;13.438;2023-05-07T11:44:22;3.30;;;2.20;;
11473;SDS011;5793;52.238;13.438;2023-05-07T11:46:50;2.67;;;1.83;;
11473;SDS011;5793;52.238;13.438;2023-05-07T11:49:18;2.22;;;1.80;;
11473;SDS011;5793;52.238;13.438;2023-05-07T11:51:49;2.03;;;1.83;;
11473;SDS011;5793;52.238;13.438;2023-05-07T11:54:25;3.75;;;2.00;;
11473;SDS011;5793;52.238;13.438;2023-05-07T11:57:05;3.40;;;2.13;;
11473;SDS011;5793;52.238;13.438;2023-05-07T11:59:38;2.38;;;2.15;;
11473;SDS011;5793;52.238;13.438;2023-05-07T12:02:07;3.05;;;2.05;;
11473;SDS011;5793;52.238;13.438;2023-05-07T12:04:35;4.25;;;2.15;;
11473;SDS011;5793;52.238;13.438;2023-05-07T12:07:04;3.70;;;2.08;;
11473;SDS011;5793;52.238;13.438;2023-05-07T12:09:32;5.78;;;2.28;;
11473;SDS011;5793;52.238;13.438;2023-05-07T12:12:03;2.55;;;2.13;;
11473;SDS011;5793;52.238;13.438;2023-05-07T12:14:31;4.50;;;2.00;;
11473;SDS011;5793;52.238;13.438;2023-05-07T12:17:00;2.08;;;1.85;;
11473;SDS011;5793;52.238;13.438;2023-05-07T12:19:29;1.65;;;1.55;;
11473;SDS011;5793;52.238;13.438;2023-05-07T12:21:57;2.13;;;1.70;;
11473;SDS011;5793;52.238;13.438;2023-05-07T12:24:27;3.13;;;1.90;;
11473;SDS011;5793;52.238;13.438;2023-05-07T12:26:54;2.03;;;1.83;;
11473;SDS011;5793;52.238;13.438;2023-05-07T12:29:22;2.42;;;2.00;;
11473;SDS011;5793;52.238;13.438;2023-05-07T12:31:50;1.92;;;1.80;;
11473;SDS011;5793;52.238;13.438;2023-05-07T12:34:18;2.30;;;1.70;;
11473;SDS011;5793;52.238;13.438;2023-05-07T12:36:46;2.78;;;2.22;;
11473;SDS011;5793;52.238;13.438;2023-05-07T12:39:15;3.45;;;1.95;;
11473;SDS011;5793;52.238;13.438;2023-05-07T12:41:53;1.85;;;1.67;;
11473;SDS011;5793;52.238;13.438;2023-05-07T12:44:22;1.70;;;1.60;;
11473;SDS011;5793;52.238;13.438;2023-05-07T12:46:50;1.90;;;1.70;;
11473;SDS011;5793;52.238;13.438;2023-05-07T12:49:19;4.05;;;1.80;;
11473;SDS011;5793;52.238;13.438;2023-05-07T12:51:50;2.92;;;1.80;;
11473;SDS011;5793;52.238;13.438;2023-05-07T12:54:27;1.70;;;1.60;;
11473;SDS011;5793;52.238;13.438;2023-05-07T12:57:01;4.90;;;2.05;;
11473;SDS011;5793;52.238;13.438;2023-05-07T12:59:33;2.33;;;1.67;;
11473;SDS011;5793;52.238;13.438;2023-05-07T13:02:01;2.05;;;1.85;;
11473;SDS011;5793;52.238;13.438;2023-05-07T13:04:29;3.10;;;1.75;;
11473;SDS011;5793;52.238;13.438;2023-05-07T13:06:57;2.92;;;1.80;;
11473;SDS011;5793;52.238;13.438;2023-05-07T13:09:25;3.53;;;1.92;;
11473;SDS011;5793;52.238;13.438;2023-05-07T13:11:55;2.92;;;1.70;;
11473;SDS011;5793;52.238;13.438;2023-05-07T13:14:24;2.10;;;1.80;;
11473;SDS011;5793;52.238;13.438;2023-05-07T13:16:52;2.28;;;1.88;;
11473;SDS011;5793;52.238;13.438;2023-05-07T13:19:19;1.85;;;1.63;;
11473;SDS011;5793;52.238;13.438;2023-05-07T13:21:47;1.90;;;1.70;;
11473;SDS011;5793;52.238;13.438;2023-05-07T13:24:16;1.95;;;1.80;;
11473;SDS011;5793;52.238;13.438;2023-05-07T13:26:44;2.65;;;1.80;;
11473;SDS011;5793;52.238;13.438;2023-05-07T13:29:11;2.72;;;1.70;;
11473;SDS011;5793;52.238;13.438;2023-05-07T13:31:40;4.63;;;1.88;;
11473;SDS011;5793;52.238;13.438;2023-05-07T13:34:10;1.58;;;1.48;;
11473;SDS011;5793;52.238;13.438;2023-05-07T13:36:38;1.85;;;1.73;;
11473;SDS011;5793;52.238;13.438;2023-05-07T13:39:08;1.92;;;1.70;;
11473;SDS011;5793;52.238;13.438;2023-05-07T13:41:35;5.40;;;1.90;;
11473;SDS011;5793;52.238;13.438;2023-05-07T13:44:03;1.73;;;1.48;;
11473;SDS011;5793;52.238;13.438;2023-05-07T13:46:31;3.80;;;1.67;;
11473;SDS011;5793;52.238;13.438;2023-05-07T13:49:00;1.75;;;1.60;;
11473;SDS011;5793;52.238;13.438;2023-05-07T13:51:28;2.97;;;1.85;;
11473;SDS011;5793;52.238;13.438;2023-05-07T13:53:56;3.45;;;1.73;;
11473;SDS011;5793;52.238;13.438;2023-05-07T13:56:24;3.15;;;1.88;;
11473;SDS011;5793;52.238;13.438;2023-05-07T13:58:52;1.95;;;1.75;;
11473;SDS011;5793;52.238;13.438;2023-05-07T14:01:25;2.20;;;1.63;;
11473;SDS011;5793;52.238;13.438;2023-05-07T14:03:55;2.80;;;1.75;;
11473;SDS011;5793;52.238;13.438;2023-05-07T14:06:24;2.00;;;1.90;;
11473;SDS011;5793;52.238;13.438;2023-05-07T14:08:52;4.80;;;1.70;;
11473;SDS011;5793;52.238;13.438;2023-05-07T14:11:20;2.10;;;1.50;;
11473;SDS011;5793;52.238;13.438;2023-05-07T14:13:48;2.20;;;1.88;;
11473;SDS011;5793;52.238;13.438;2023-05-07T14:16:16;2.80;;;1.70;;
11473;SDS011;5793;52.238;13.438;2023-05-07T14:18:44;2.30;;;1.80;;
11473;SDS011;5793;52.238;13.438;2023-05-07T14:21:11;2.85;;;1.73;;
11473;SDS011;5793;52.238;13.438;2023-05-07T14:23:41;2.33;;;1.85;;
11473;SDS011;5793;52.238;13.438;2023-05-07T14:26:09;3.17;;;1.85;;
11473;SDS011;5793;52.238;13.438;2023-05-07T14:28:37;2.00;;;1.80;;
11473;SDS011;5793;52.238;13.438;2023-05-07T14:31:05;1.83;;;1.63;;
11473;SDS011;5793;52.238;13.438;2023-05-07T14:33:33;2.03;;;1.73;;
11473;SDS011;5793;52.238;13.438;2023-05-07T14:36:01;4.97;;;1.65;;
11473;SDS011;5793;52.238;13.438;2023-05-07T14:38:29;3.63;;;1.63;;
11473;SDS011;5793;52.238;13.438;2023-05-07T14:41:00;3.38;;;1.63;;
11473;SDS011;5793;52.238;13.438;2023-05-07T14:43:28;3.78;;;1.60;;
11473;SDS011;5793;52.238;13.438;2023-05-07T14:45:55;2.00;;;1.67;;
11473;SDS011;5793;52.238;13.438;2023-05-07T14:48:23;2.63;;;1.90;;
11473;SDS011;5793;52.238;13.438;2023-05-07T14:50:51;2.92;;;2.05;;
11473;SDS011;5793;52.238;13.438;2023-05-07T14:53:19;4.22;;;2.03;;
11473;SDS011;5793;52.238;13.438;2023-05-07T14:55:47;1.80;;;1.70;;
11473;SDS011;5793;52.238;13.438;2023-05-07T14:58:16;2.17;;;1.70;;
11473;SDS011;5793;52.238;13.438;2023-05-07T15:00:44;2.45;;;1.73;;